createdAt,value
2023-04-13T00:00:11.632Z,34.7695
2023-04-13T00:01:15.534Z,34.8607
2023-04-13T00:02:19.612Z,34.8825
2023-04-13T00:03:23.707Z,34.8713
2023-04-13T00:04:23.606Z,34.5831
2023-04-13T00:05:27.551Z,34.8354
2023-04-13T00:06:31.405Z,34.7588
2023-04-13T00:07:35.315Z,34.6948
2023-04-13T00:08:39.201Z,34.7452
2023-04-13T00:09:43.093Z,34.7963
2023-04-13T00:10:46.982Z,34.8027
2023-04-13T00:11:50.880Z,34.7271
2023-04-13T00:12:54.757Z,34.7478
2023-04-13T00:13:58.946Z,34.7875
2023-04-13T00:15:03.070Z,34.7726
2023-04-13T00:16:06.954Z,34.7465
2023-04-13T00:17:10.861Z,34.7843
2023-04-13T00:18:14.737Z,34.7979
2023-04-13T00:19:18.716Z,34.5939
2023-04-13T00:20:22.625Z,34.7601
2023-04-13T00:21:26.512Z,34.6767
2023-04-13T00:22:30.378Z,34.6420
2023-04-13T00:23:34.280Z,34.5477
2023-04-13T00:24:38.174Z,34.6582
2023-04-13T00:25:42.968Z,34.6874
2023-04-13T00:26:46.850Z,34.6029
2023-04-13T00:27:50.785Z,34.5979
2023-04-13T00:28:54.698Z,34.4265
2023-04-13T00:29:58.588Z,34.3759
2023-04-13T00:31:02.859Z,34.3912
2023-04-13T00:32:06.790Z,34.6067
2023-04-13T00:33:10.748Z,34.5646
2023-04-13T00:34:14.603Z,34.4969
2023-04-13T00:35:18.532Z,34.5745
2023-04-13T00:36:22.404Z,34.5298
2023-04-13T00:37:26.318Z,34.5944
2023-04-13T00:38:30.463Z,34.5806
2023-04-13T00:39:34.325Z,34.5709
2023-04-13T00:40:38.281Z,34.6226
2023-04-13T00:41:42.150Z,34.5411
2023-04-13T00:42:46.075Z,34.6062
2023-04-13T00:43:49.954Z,34.3912
2023-04-13T00:44:53.885Z,34.4609
2023-04-13T00:45:58.000Z,34.6159
2023-04-13T00:47:01.910Z,34.5690
2023-04-13T00:48:05.859Z,34.6364
2023-04-13T00:49:09.762Z,34.6390
2023-04-13T00:50:13.666Z,34.2540
2023-04-13T00:51:17.563Z,34.4339
2023-04-13T00:52:21.443Z,34.4245
2023-04-13T00:53:25.652Z,34.1192
2023-04-13T00:54:29.537Z,34.2858
2023-04-13T00:55:33.831Z,34.1284
2023-04-13T00:56:37.736Z,34.1873
2023-04-13T00:57:41.619Z,34.3276
2023-04-13T00:58:45.536Z,34.4637
2023-04-13T00:59:49.404Z,34.1885
2023-04-13T01:00:53.547Z,34.2049
2023-04-13T01:01:57.482Z,34.4577
2023-04-13T01:03:01.520Z,34.4811
2023-04-13T01:04:05.733Z,34.0720
2023-04-13T01:05:09.584Z,34.3237
2023-04-13T01:06:13.872Z,34.2738
2023-04-13T01:07:17.755Z,34.1965
2023-04-13T01:08:21.653Z,34.2308
2023-04-13T01:09:25.527Z,34.4530
2023-04-13T01:10:29.756Z,34.5073
2023-04-13T01:11:33.626Z,34.3849
2023-04-13T01:12:37.535Z,34.2764
2023-04-13T01:13:41.416Z,34.3996
2023-04-13T01:14:45.304Z,34.3943
2023-04-13T01:15:49.546Z,34.3160
2023-04-13T01:16:53.410Z,34.2133
2023-04-13T01:17:57.553Z,34.2439
2023-04-13T01:19:01.471Z,34.3040
2023-04-13T01:20:05.339Z,34.2130
2023-04-13T01:21:09.243Z,34.2711
2023-04-13T01:22:13.149Z,34.1412
2023-04-13T01:23:17.274Z,34.3230
2023-04-13T01:24:21.184Z,33.9835
2023-04-13T01:25:25.332Z,34.3145
2023-04-13T01:26:29.212Z,34.2731
2023-04-13T01:27:33.113Z,34.3050
2023-04-13T01:28:37.032Z,34.2910
2023-04-13T01:29:40.938Z,34.2536
2023-04-13T01:30:45.067Z,34.1899
2023-04-13T01:31:49.130Z,34.0536
2023-04-13T01:32:53.266Z,34.0790
2023-04-13T01:33:57.686Z,34.2208
2023-04-13T01:35:01.673Z,34.3091
2023-04-13T01:36:05.555Z,34.2605
2023-04-13T01:37:09.429Z,34.3053
2023-04-13T01:38:13.304Z,34.3577
2023-04-13T01:39:17.219Z,34.2101
2023-04-13T01:40:21.099Z,34.2587
2023-04-13T01:41:25.003Z,34.0521
2023-04-13T01:42:28.877Z,34.1700
2023-04-13T01:43:33.030Z,34.2477
2023-04-13T01:44:36.889Z,34.3064
2023-04-13T01:45:40.769Z,34.2609
2023-04-13T01:46:44.665Z,34.1740
2023-04-13T01:47:48.594Z,34.0830
2023-04-13T01:48:52.448Z,33.9536
2023-04-13T01:49:56.353Z,34.0837
2023-04-13T01:51:00.484Z,33.9716
2023-04-13T01:52:04.380Z,34.1512
2023-04-13T01:53:08.599Z,34.1457
2023-04-13T01:54:12.495Z,34.1385
2023-04-13T01:55:16.362Z,33.8204
2023-04-13T01:56:20.504Z,33.8313
2023-04-13T01:57:24.382Z,33.6833
2023-04-13T01:58:28.312Z,33.7974
2023-04-13T01:59:32.196Z,33.8956
2023-04-13T02:00:36.144Z,33.8822
2023-04-13T02:01:40.394Z,33.9049
2023-04-13T02:02:44.426Z,33.8184
2023-04-13T02:03:48.685Z,33.8688
2023-04-13T02:04:52.648Z,33.6356
2023-04-13T02:05:56.810Z,33.7215
2023-04-13T02:07:00.699Z,33.6705
2023-04-13T02:08:04.584Z,33.8322
2023-04-13T02:09:08.485Z,33.8131
2023-04-13T02:10:12.368Z,33.7375
2023-04-13T02:11:12.699Z,33.9523
2023-04-13T02:12:16.610Z,33.6602
2023-04-13T02:13:20.490Z,33.8318
2023-04-13T02:14:24.371Z,33.8790
2023-04-13T02:15:28.274Z,33.8187
2023-04-13T02:16:32.323Z,33.7573
2023-04-13T02:17:36.241Z,33.7288
2023-04-13T02:18:40.167Z,33.8120
2023-04-13T02:19:44.035Z,33.8919
2023-04-13T02:20:47.943Z,33.8970
2023-04-13T02:21:51.839Z,33.8462
2023-04-13T02:22:55.722Z,33.8967
2023-04-13T02:23:59.927Z,33.7500
2023-04-13T02:25:04.131Z,33.8374
2023-04-13T02:26:04.290Z,33.8974
2023-04-13T02:27:08.177Z,33.6316
2023-04-13T02:28:12.053Z,33.7146
2023-04-13T02:29:15.965Z,33.8694
2023-04-13T02:30:19.862Z,33.8562
2023-04-13T02:31:23.801Z,33.8625
2023-04-13T02:32:27.703Z,33.8614
2023-04-13T02:33:31.596Z,33.9279
2023-04-13T02:34:35.533Z,33.9627
2023-04-13T02:35:39.421Z,33.9172
2023-04-13T02:36:43.303Z,33.9258
2023-04-13T02:37:47.202Z,33.7507
2023-04-13T02:38:51.814Z,33.7080
2023-04-13T02:39:55.803Z,33.7306
2023-04-13T02:40:59.668Z,33.5202
2023-04-13T02:42:03.572Z,33.5792
2023-04-13T02:43:07.453Z,33.4896
2023-04-13T02:44:11.356Z,33.6882
2023-04-13T02:45:15.261Z,33.7765
2023-04-13T02:46:19.170Z,33.5253
2023-04-13T02:47:23.099Z,33.4837
2023-04-13T02:48:26.996Z,33.4912
2023-04-13T02:49:30.869Z,33.6621
2023-04-13T02:50:34.766Z,33.5378
2023-04-13T02:51:38.650Z,33.3744
2023-04-13T02:52:42.570Z,33.3075
2023-04-13T02:53:46.442Z,33.4049
2023-04-13T02:54:50.346Z,33.4120
2023-04-13T02:55:54.235Z,33.6423
2023-04-13T02:56:58.315Z,33.3617
2023-04-13T02:58:02.214Z,33.4919
2023-04-13T02:59:06.120Z,33.5210
2023-04-13T03:00:10.016Z,33.5518
2023-04-13T03:01:13.945Z,33.4191
2023-04-13T03:02:17.827Z,33.3797
2023-04-13T03:03:21.772Z,33.4733
2023-04-13T03:04:25.630Z,33.5204
2023-04-13T03:05:29.523Z,33.4931
2023-04-13T03:06:33.407Z,33.2830
2023-04-13T03:07:37.312Z,33.5072
2023-04-13T03:08:41.205Z,33.4540
2023-04-13T03:09:45.102Z,33.4113
2023-04-13T03:10:48.990Z,33.5534
2023-04-13T03:11:52.896Z,33.6284
2023-04-13T03:12:56.780Z,33.6936
2023-04-13T03:14:01.017Z,33.7285
2023-04-13T03:15:05.266Z,33.7341
2023-04-13T03:16:09.151Z,33.7002
2023-04-13T03:17:13.077Z,33.6733
2023-04-13T03:18:16.968Z,33.6398
2023-04-13T03:19:20.868Z,33.6011
2023-04-13T03:20:24.748Z,33.6012
2023-04-13T03:21:28.656Z,33.6122
2023-04-13T03:22:32.543Z,33.6197
2023-04-13T03:23:36.706Z,33.6305
2023-04-13T03:24:40.588Z,33.6171
2023-04-13T03:25:44.814Z,33.6231
2023-04-13T03:26:48.705Z,33.6246
2023-04-13T03:27:52.676Z,33.6161
2023-04-13T03:28:56.557Z,33.6096
2023-04-13T03:30:00.450Z,33.5979
2023-04-13T03:31:04.364Z,33.5732
2023-04-13T03:32:08.215Z,33.5535
2023-04-13T03:33:13.640Z,33.5389
2023-04-13T03:34:17.528Z,33.5417
2023-04-13T03:35:21.412Z,33.5193
2023-04-13T03:36:25.319Z,33.5024
2023-04-13T03:37:29.203Z,33.4753
2023-04-13T03:38:33.115Z,33.4706
2023-04-13T03:39:36.998Z,33.4693
2023-04-13T03:40:40.895Z,33.4591
2023-04-13T03:41:44.759Z,33.4479
2023-04-13T03:42:48.674Z,33.4148
2023-04-13T03:43:52.579Z,33.4108
2023-04-13T03:44:56.477Z,33.3886
2023-04-13T03:46:00.608Z,33.3604
2023-04-13T03:47:04.499Z,33.3590
2023-04-13T03:48:08.466Z,33.3651
2023-04-13T03:49:12.335Z,33.3594
2023-04-13T03:50:16.253Z,33.3328
2023-04-13T03:51:20.151Z,33.3131
2023-04-13T03:52:24.059Z,33.2935
2023-04-13T03:53:27.948Z,33.2624
2023-04-13T03:54:31.859Z,33.2401
2023-04-13T03:55:35.753Z,33.2359
2023-04-13T03:56:39.639Z,33.2172
2023-04-13T03:57:43.532Z,33.2076
2023-04-13T03:58:47.412Z,33.2143
2023-04-13T03:59:51.307Z,33.2189
2023-04-13T04:00:55.219Z,33.2186
2023-04-13T04:01:59.165Z,33.2004
2023-04-13T04:03:03.102Z,33.1734
2023-04-13T04:04:03.876Z,33.1334
2023-04-13T04:05:08.250Z,33.1173
2023-04-13T04:06:12.115Z,33.0715
2023-04-13T04:07:16.008Z,33.0265
2023-04-13T04:08:19.928Z,33.0284
2023-04-13T04:09:23.810Z,32.9914
2023-04-13T04:10:27.719Z,32.9907
2023-04-13T04:11:32.588Z,32.9352
2023-04-13T04:12:36.475Z,32.9522
2023-04-13T04:13:40.400Z,32.9762
2023-04-13T04:14:44.295Z,33.0198
2023-04-13T04:15:48.182Z,32.7816
2023-04-13T04:16:52.063Z,32.5553
2023-04-13T04:17:55.996Z,32.2188
2023-04-13T04:18:59.873Z,32.0031
2023-04-13T04:20:03.784Z,31.6407
2023-04-13T04:21:07.649Z,31.1535
2023-04-13T04:22:11.525Z,30.6579
2023-04-13T04:23:18.136Z,29.9123
2023-04-13T04:24:17.861Z,29.1798
2023-04-13T04:25:21.744Z,28.9248
2023-04-13T04:26:25.743Z,28.7535
2023-04-13T04:27:29.737Z,28.7080
2023-04-13T04:28:33.623Z,28.5486
2023-04-13T04:29:37.508Z,28.4973
2023-04-13T04:30:41.393Z,28.3514
2023-04-13T04:31:45.319Z,28.1997
2023-04-13T04:32:49.223Z,28.0728
2023-04-13T04:33:53.095Z,27.9634
2023-04-13T04:34:57.004Z,27.9070
2023-04-13T04:36:00.890Z,27.7942
2023-04-13T04:37:13.995Z,27.6693
2023-04-13T04:38:09.295Z,27.3955
2023-04-13T04:39:13.208Z,27.3749
2023-04-13T04:40:17.081Z,27.3263
2023-04-13T04:41:20.991Z,27.2530
2023-04-13T04:42:24.847Z,27.1056
2023-04-13T04:43:28.981Z,27.0566
2023-04-13T04:44:32.856Z,26.9827
2023-04-13T04:45:36.760Z,26.9098
2023-04-13T04:46:40.646Z,26.8737
2023-04-13T04:47:44.577Z,26.8025
2023-04-13T04:48:48.486Z,26.7382
2023-04-13T04:49:52.402Z,26.6441
2023-04-13T04:50:56.515Z,26.6678
2023-04-13T04:52:00.418Z,26.6181
2023-04-13T04:53:04.521Z,26.5717
2023-04-13T04:54:08.437Z,26.5041
2023-04-13T04:55:12.299Z,26.4468
2023-04-13T04:56:16.230Z,26.4633
2023-04-13T04:57:20.108Z,26.3848
2023-04-13T04:58:20.409Z,26.3889
2023-04-13T04:59:24.313Z,26.4207
2023-04-13T05:00:28.199Z,26.3490
2023-04-13T05:01:32.233Z,26.2646
2023-04-13T05:02:36.267Z,26.3170
2023-04-13T05:03:40.203Z,26.3780
2023-04-13T05:04:44.097Z,26.2695
2023-04-13T05:05:48.192Z,26.2582
2023-04-13T05:06:52.103Z,26.2290
2023-04-13T05:07:55.965Z,26.2227
2023-04-13T05:09:00.119Z,26.1695
2023-04-13T05:10:04.147Z,26.1969
2023-04-13T05:11:08.058Z,26.1943
2023-04-13T05:12:11.951Z,25.9801
2023-04-13T05:13:15.874Z,25.7814
2023-04-13T05:14:19.759Z,25.8438
2023-04-13T05:15:23.664Z,25.9893
2023-04-13T05:16:27.822Z,25.9891
2023-04-13T05:17:31.758Z,26.1654
2023-04-13T05:18:35.637Z,26.2199
2023-04-13T05:19:39.558Z,26.2476
2023-04-13T05:20:43.453Z,26.3539
2023-04-13T05:21:47.356Z,26.4056
2023-04-13T05:22:51.232Z,26.6097
2023-04-13T05:23:55.132Z,26.5849
2023-04-13T05:24:59.020Z,26.4374
2023-04-13T05:26:02.916Z,26.4380
2023-04-13T05:27:06.800Z,26.4947
2023-04-13T05:28:10.673Z,26.4587
2023-04-13T05:29:14.566Z,26.5510
2023-04-13T05:30:18.473Z,26.4823
2023-04-13T05:31:22.394Z,26.5142
2023-04-13T05:32:26.394Z,26.6484
2023-04-13T05:33:31.022Z,26.8016
2023-04-13T05:34:34.917Z,26.7679
2023-04-13T05:35:38.799Z,26.5802
2023-04-13T05:36:42.714Z,26.5729
2023-04-13T05:37:46.615Z,26.5585
2023-04-13T05:38:50.493Z,26.5523
2023-04-13T05:39:54.369Z,26.5000
2023-04-13T05:40:58.260Z,26.4695
2023-04-13T05:42:02.191Z,26.4611
2023-04-13T05:43:06.043Z,26.4015
2023-04-13T05:44:09.952Z,26.3585
2023-04-13T05:45:13.848Z,26.4386
2023-04-13T05:46:17.799Z,26.3888
2023-04-13T05:47:21.738Z,26.4970
2023-04-13T05:48:25.648Z,26.5019
2023-04-13T05:49:29.530Z,26.5412
2023-04-13T05:50:33.449Z,26.5559
2023-04-13T05:51:37.649Z,26.5179
2023-04-13T05:52:41.524Z,26.4409
2023-04-13T05:53:45.445Z,26.5564
2023-04-13T05:54:49.328Z,26.5433
2023-04-13T05:55:53.226Z,26.5243
2023-04-13T05:56:57.118Z,26.6583
2023-04-13T05:58:00.990Z,26.7009
2023-04-13T05:59:05.092Z,26.5352
2023-04-13T06:00:08.995Z,26.6583
2023-04-13T06:01:12.899Z,26.6439
2023-04-13T06:02:16.841Z,26.6202
2023-04-13T06:03:20.960Z,26.6750
2023-04-13T06:04:25.158Z,26.5945
2023-04-13T06:05:29.307Z,26.5050
2023-04-13T06:06:33.378Z,26.5079
2023-04-13T06:07:37.280Z,26.5470
2023-04-13T06:08:41.464Z,26.5605
2023-04-13T06:09:45.334Z,26.6096
2023-04-13T06:10:49.243Z,26.6392
2023-04-13T06:11:53.161Z,26.5504
2023-04-13T06:12:57.051Z,26.5171
2023-04-13T06:14:00.963Z,26.5334
2023-04-13T06:15:04.854Z,26.5408
2023-04-13T06:16:08.984Z,26.5038
2023-04-13T06:17:12.886Z,26.3486
2023-04-13T06:18:16.816Z,26.2828
2023-04-13T06:19:20.716Z,26.3254
2023-04-13T06:20:24.612Z,26.1710
2023-04-13T06:21:28.486Z,26.1221
2023-04-13T06:22:32.392Z,26.1162
2023-04-13T06:23:36.658Z,25.9258
2023-04-13T06:24:40.561Z,25.8673
2023-04-13T06:25:44.465Z,25.8487
2023-04-13T06:26:48.348Z,25.7946
2023-04-13T06:27:52.228Z,25.9205
2023-04-13T06:28:56.366Z,25.9139
2023-04-13T06:30:00.266Z,25.8449
2023-04-13T06:31:04.199Z,25.7934
2023-04-13T06:32:08.050Z,25.7712
2023-04-13T06:33:12.217Z,25.7026
2023-04-13T06:34:16.141Z,25.6090
2023-04-13T06:35:20.026Z,25.4898
2023-04-13T06:36:24.155Z,25.5476
2023-04-13T06:37:28.021Z,25.6158
2023-04-13T06:38:31.937Z,25.4252
2023-04-13T06:39:35.819Z,25.3158
2023-04-13T06:40:39.728Z,25.2776
2023-04-13T06:41:43.636Z,25.2768
2023-04-13T06:42:47.544Z,25.2337
2023-04-13T06:43:51.426Z,25.2146
2023-04-13T06:44:55.318Z,25.1151
2023-04-13T06:45:59.477Z,25.0853
2023-04-13T06:47:03.348Z,25.0616
2023-04-13T06:48:07.306Z,25.0138
2023-04-13T06:49:11.250Z,24.8752
2023-04-13T06:50:15.159Z,24.8717
2023-04-13T06:51:19.050Z,24.8581
2023-04-13T06:52:22.947Z,24.8197
2023-04-13T06:53:26.839Z,24.8201
2023-04-13T06:54:30.740Z,24.7964
2023-04-13T06:55:34.630Z,24.6980
2023-04-13T06:56:38.553Z,24.6630
2023-04-13T06:57:42.452Z,24.5841
2023-04-13T06:58:46.365Z,24.5583
2023-04-13T06:59:50.232Z,24.5330
2023-04-13T07:00:54.440Z,24.4728
2023-04-13T07:01:58.452Z,24.4511
2023-04-13T07:03:02.556Z,24.4121
2023-04-13T07:04:06.642Z,24.3394
2023-04-13T07:05:10.589Z,24.3271
2023-04-13T07:06:14.504Z,24.3039
2023-04-13T07:07:18.387Z,24.2439
2023-04-13T07:08:22.263Z,24.2034
2023-04-13T07:09:26.164Z,24.2454
2023-04-13T07:10:30.035Z,24.1892
2023-04-13T07:11:34.181Z,24.2036
2023-04-13T07:12:38.094Z,24.1314
2023-04-13T07:13:41.960Z,24.0787
2023-04-13T07:14:45.844Z,24.0925
2023-04-13T07:15:49.808Z,24.0789
2023-04-13T07:16:53.668Z,24.0810
2023-04-13T07:17:57.618Z,24.0463
2023-04-13T07:19:01.606Z,23.9871
2023-04-13T07:20:05.466Z,23.9476
2023-04-13T07:21:09.350Z,23.9536
2023-04-13T07:22:13.245Z,23.9376
2023-04-13T07:23:17.139Z,23.9566
2023-04-13T07:24:21.022Z,24.0044
2023-04-13T07:25:24.963Z,23.9634
2023-04-13T07:26:28.817Z,23.9604
2023-04-13T07:27:32.707Z,23.8664
2023-04-13T07:28:36.608Z,23.8463
2023-04-13T07:29:40.498Z,23.8511
2023-04-13T07:30:44.375Z,23.8117
2023-04-13T07:31:48.360Z,23.8267
2023-04-13T07:32:52.325Z,23.7781
2023-04-13T07:33:56.195Z,23.7562
2023-04-13T07:35:00.105Z,23.8154
2023-04-13T07:36:04.218Z,23.8099
2023-04-13T07:37:08.081Z,23.8150
2023-04-13T07:38:11.998Z,23.8515
2023-04-13T07:39:15.899Z,23.8692
2023-04-13T07:40:19.778Z,23.9027
2023-04-13T07:41:23.915Z,23.8731
2023-04-13T07:42:27.780Z,23.8227
2023-04-13T07:43:31.951Z,23.8060
2023-04-13T07:44:35.827Z,23.7653
2023-04-13T07:45:39.722Z,23.6632
2023-04-13T07:46:44.613Z,23.6399
2023-04-13T07:47:48.498Z,23.6335
2023-04-13T07:48:52.386Z,23.6426
2023-04-13T07:49:56.294Z,23.6534
2023-04-13T07:51:00.169Z,23.6660
2023-04-13T07:52:04.082Z,23.6680
2023-04-13T07:53:07.950Z,23.6649
2023-04-13T07:54:11.877Z,23.6371
2023-04-13T07:55:15.739Z,23.6555
2023-04-13T07:56:19.657Z,23.6307
2023-04-13T07:57:23.546Z,23.6403
2023-04-13T07:58:27.668Z,23.6402
2023-04-13T07:59:31.574Z,23.6413
2023-04-13T08:00:35.476Z,23.6242
2023-04-13T08:01:39.398Z,23.6060
2023-04-13T08:02:43.450Z,23.6087
2023-04-13T08:03:47.555Z,23.6045
2023-04-13T08:04:51.547Z,23.6532
2023-04-13T08:05:55.468Z,23.6451
2023-04-13T08:06:59.363Z,23.6258
2023-04-13T08:08:03.265Z,23.6502
2023-04-13T08:09:07.161Z,23.6608
2023-04-13T08:10:11.048Z,23.6285
2023-04-13T08:11:14.937Z,23.5824
2023-04-13T08:12:18.842Z,23.5718
2023-04-13T08:13:22.721Z,23.5734
2023-04-13T08:14:26.630Z,23.5786
2023-04-13T08:15:30.538Z,23.5546
2023-04-13T08:16:34.563Z,23.5430
2023-04-13T08:17:38.603Z,23.5290
2023-04-13T08:18:42.622Z,23.4761
2023-04-13T08:19:46.532Z,23.4269
2023-04-13T08:20:50.521Z,23.3912
2023-04-13T08:21:54.397Z,23.4080
2023-04-13T08:22:58.310Z,23.4244
2023-04-13T08:24:02.223Z,23.4927
2023-04-13T08:25:06.122Z,23.6495
2023-04-13T08:26:09.998Z,23.6667
2023-04-13T08:27:13.901Z,23.6260
2023-04-13T08:28:17.934Z,23.7133
2023-04-13T08:29:21.832Z,23.7190
2023-04-13T08:30:25.763Z,23.7768
2023-04-13T08:31:29.662Z,23.6972
2023-04-13T08:32:33.592Z,23.5886
2023-04-13T08:33:37.463Z,23.6161
2023-04-13T08:34:41.366Z,23.7592
2023-04-13T08:35:45.259Z,23.6887
2023-04-13T08:36:49.145Z,23.5354
2023-04-13T08:37:53.056Z,23.4657
2023-04-13T08:38:57.157Z,23.3674
2023-04-13T08:40:01.299Z,23.3174
2023-04-13T08:41:05.493Z,23.2882
2023-04-13T08:42:09.386Z,23.3483
2023-04-13T08:43:13.287Z,23.2663
2023-04-13T08:44:17.198Z,23.4191
2023-04-13T08:45:21.082Z,23.4548
2023-04-13T08:46:25.092Z,23.3114
2023-04-13T08:47:29.111Z,23.2603
2023-04-13T08:48:46.121Z,23.2442
2023-04-13T08:49:37.493Z,23.3025
2023-04-13T08:50:41.377Z,23.1511
2023-04-13T08:51:45.274Z,23.2012
2023-04-13T08:52:49.162Z,23.1423
2023-04-13T08:53:53.059Z,23.0413
2023-04-13T08:54:56.983Z,23.0191
2023-04-13T08:56:01.099Z,23.0427
2023-04-13T08:57:05.016Z,23.0318
2023-04-13T08:58:08.905Z,23.0560
2023-04-13T08:59:09.240Z,23.0517
2023-04-13T09:00:13.135Z,23.0909
2023-04-13T09:01:17.064Z,23.1054
2023-04-13T09:02:20.995Z,23.0945
2023-04-13T09:03:24.961Z,23.2180
2023-04-13T09:04:28.957Z,23.1820
2023-04-13T09:05:32.874Z,23.1593
2023-04-13T09:06:36.762Z,23.2245
2023-04-13T09:07:40.672Z,23.3299
2023-04-13T09:08:44.586Z,23.3946
2023-04-13T09:09:48.512Z,23.3684
2023-04-13T09:10:52.620Z,23.3473
2023-04-13T09:11:56.510Z,23.3194
2023-04-13T09:13:00.388Z,23.4313
2023-04-13T09:14:04.565Z,23.4568
2023-04-13T09:15:08.436Z,23.4574
2023-04-13T09:16:12.403Z,23.5168
2023-04-13T09:17:16.344Z,23.6129
2023-04-13T09:18:20.250Z,23.6758
2023-04-13T09:19:24.140Z,23.7718
2023-04-13T09:20:28.042Z,23.8772
2023-04-13T09:21:31.968Z,24.0222
2023-04-13T09:22:35.826Z,24.1185
2023-04-13T09:23:39.737Z,24.1881
2023-04-13T09:24:43.661Z,24.2223
2023-04-13T09:25:47.711Z,24.2289
2023-04-13T09:26:51.591Z,24.2234
2023-04-13T09:27:55.504Z,24.2223
2023-04-13T09:28:59.727Z,24.2406
2023-04-13T09:30:03.758Z,24.2925
2023-04-13T09:31:07.677Z,24.3231
2023-04-13T09:32:11.553Z,24.3307
2023-04-13T09:33:15.750Z,24.2920
2023-04-13T09:34:19.654Z,24.2960
2023-04-13T09:35:23.566Z,24.2930
2023-04-13T09:36:27.706Z,24.3854
2023-04-13T09:37:31.628Z,24.4607
2023-04-13T09:38:35.555Z,24.4836
2023-04-13T09:39:39.456Z,24.5282
2023-04-13T09:40:43.330Z,24.4634
2023-04-13T09:41:47.259Z,24.4530
2023-04-13T09:42:51.140Z,24.4525
2023-04-13T09:43:55.056Z,24.5150
2023-04-13T09:44:58.942Z,24.5983
2023-04-13T09:46:02.906Z,24.5977
2023-04-13T09:47:06.796Z,24.5875
2023-04-13T09:48:10.704Z,24.5925
2023-04-13T09:49:14.648Z,24.5517
2023-04-13T09:50:18.638Z,24.5172
2023-04-13T09:51:22.537Z,24.5066
2023-04-13T09:52:26.424Z,24.5307
2023-04-13T09:53:30.329Z,24.5454
2023-04-13T09:54:34.238Z,24.6252
2023-04-13T09:55:38.137Z,24.6981
2023-04-13T09:56:42.126Z,24.7549
2023-04-13T09:57:46.035Z,24.8137
2023-04-13T09:58:50.155Z,24.8649
2023-04-13T09:59:54.050Z,24.9154
2023-04-13T10:00:57.952Z,24.9163
2023-04-13T10:02:01.923Z,24.9278
2023-04-13T10:03:05.949Z,24.9661
2023-04-13T10:04:09.846Z,24.9938
2023-04-13T10:05:13.876Z,24.9974
2023-04-13T10:06:17.812Z,24.9661
2023-04-13T10:07:21.808Z,24.9228
2023-04-13T10:08:36.807Z,24.8750
2023-04-13T10:09:30.198Z,24.9031
2023-04-13T10:10:34.327Z,24.8831
2023-04-13T10:11:38.211Z,24.9064
2023-04-13T10:12:42.105Z,24.8938
2023-04-13T10:13:46.235Z,24.8444
2023-04-13T10:14:50.148Z,24.8412
2023-04-13T10:15:54.060Z,24.8468
2023-04-13T10:16:57.931Z,24.8189
2023-04-13T10:18:01.893Z,24.7348
2023-04-13T10:19:05.762Z,24.6687
2023-04-13T10:20:09.668Z,24.6222
2023-04-13T10:21:13.813Z,24.5710
2023-04-13T10:22:17.693Z,24.4555
2023-04-13T10:23:21.622Z,24.4121
2023-04-13T10:24:25.482Z,24.3303
2023-04-13T10:25:33.473Z,24.2814
2023-04-13T10:26:33.872Z,24.1220
2023-04-13T10:27:37.766Z,24.0172
2023-04-13T10:28:41.912Z,23.9353
2023-04-13T10:29:45.818Z,23.8328
2023-04-13T10:30:49.734Z,23.7867
2023-04-13T10:31:53.637Z,23.7029
2023-04-13T10:32:57.561Z,23.6377
2023-04-13T10:34:01.604Z,23.5700
2023-04-13T10:35:05.619Z,23.4715
2023-04-13T10:36:09.510Z,23.3533
2023-04-13T10:37:13.397Z,23.2866
2023-04-13T10:38:17.316Z,23.2529
2023-04-13T10:39:21.218Z,23.2192
2023-04-13T10:40:25.114Z,23.1583
2023-04-13T10:41:29.024Z,23.1042
2023-04-13T10:42:39.258Z,23.0259
2023-04-13T10:43:37.658Z,22.8712
2023-04-13T10:44:41.534Z,22.8150
2023-04-13T10:45:45.413Z,22.9068
2023-04-13T10:46:49.303Z,22.8361
2023-04-13T10:47:53.232Z,22.5290
2023-04-13T10:48:57.299Z,22.4255
2023-04-13T10:50:01.267Z,22.4992
2023-04-13T10:51:05.162Z,22.3326
2023-04-13T10:52:09.035Z,22.2052
2023-04-13T10:53:13.142Z,22.1349
2023-04-13T10:54:17.049Z,22.0049
2023-04-13T10:55:20.965Z,21.9941
2023-04-13T10:56:24.868Z,21.9467
2023-04-13T10:57:28.752Z,21.8453
2023-04-13T10:58:33.223Z,21.7416
2023-04-13T10:59:49.159Z,21.6678
2023-04-13T11:00:46.161Z,21.6379
2023-04-13T11:01:46.240Z,21.6374
2023-04-13T11:02:50.294Z,21.6485
2023-04-13T11:04:04.630Z,21.6598
2023-04-13T11:04:58.713Z,21.6656
2023-04-13T11:06:02.626Z,21.6521
2023-04-13T11:07:06.473Z,21.6629
2023-04-13T11:08:10.392Z,21.5935
2023-04-13T11:09:16.791Z,21.6204
2023-04-13T11:10:15.857Z,21.7019
2023-04-13T11:11:19.798Z,21.7754
2023-04-13T11:12:23.710Z,21.8499
2023-04-13T11:13:27.621Z,21.9010
2023-04-13T11:14:31.523Z,21.9539
2023-04-13T11:15:35.409Z,21.9709
2023-04-13T11:16:39.468Z,21.9936
2023-04-13T11:17:43.399Z,21.9982
2023-04-13T11:18:47.543Z,22.0314
2023-04-13T11:19:51.435Z,22.1434
2023-04-13T11:20:55.377Z,22.1452
2023-04-13T11:21:59.234Z,22.2158
2023-04-13T11:23:03.173Z,22.2883
2023-04-13T11:24:07.062Z,22.3410
2023-04-13T11:25:10.970Z,22.3772
2023-04-13T11:26:14.851Z,22.4356
2023-04-13T11:27:18.733Z,22.4028
2023-04-13T11:28:22.671Z,22.3339
2023-04-13T11:29:26.575Z,22.2923
2023-04-13T11:30:30.465Z,22.2934
2023-04-13T11:31:34.628Z,22.3213
2023-04-13T11:32:38.514Z,22.4767
2023-04-13T11:33:42.373Z,22.6072
2023-04-13T11:34:46.288Z,22.6683
2023-04-13T11:35:50.443Z,22.6878
2023-04-13T11:36:54.378Z,22.6787
2023-04-13T11:37:58.297Z,22.6150
2023-04-13T11:39:02.293Z,22.5660
2023-04-13T11:40:06.151Z,22.5118
2023-04-13T11:41:16.611Z,22.5055
2023-04-13T11:42:14.547Z,22.5002
2023-04-13T11:43:19.403Z,22.5150
2023-04-13T11:44:23.312Z,22.4804
2023-04-13T11:45:27.224Z,22.4725
2023-04-13T11:46:31.584Z,22.4569
2023-04-13T11:47:35.618Z,22.3806
2023-04-13T11:48:39.480Z,22.4818
2023-04-13T11:49:43.390Z,22.5377
2023-04-13T11:50:47.306Z,22.5152
2023-04-13T11:51:51.204Z,22.4079
2023-04-13T11:52:55.114Z,22.3948
2023-04-13T11:53:59.071Z,22.2772
2023-04-13T11:55:11.088Z,22.2993
2023-04-13T11:56:07.680Z,22.2936
2023-04-13T11:57:11.585Z,22.2552
2023-04-13T11:58:15.554Z,22.1529
2023-04-13T11:59:19.442Z,22.1475
2023-04-13T12:00:23.347Z,22.0902
2023-04-13T12:01:32.309Z,22.0033
2023-04-13T12:02:33.665Z,21.9924
2023-04-13T12:03:47.023Z,21.9995
2023-04-13T12:04:37.904Z,22.0787
2023-04-13T12:05:42.338Z,21.9591
2023-04-13T12:06:46.598Z,21.9448
2023-04-13T12:07:51.407Z,21.9709
2023-04-13T12:08:59.905Z,21.9067
2023-04-13T12:10:05.526Z,21.9618
2023-04-13T12:12:46.491Z,22.0530
2023-04-13T12:14:20.939Z,22.3242
2023-04-13T12:16:25.791Z,22.6861
2023-04-13T12:17:39.113Z,22.8080
2023-04-13T12:18:36.625Z,22.9566
2023-04-13T12:19:35.602Z,23.0710
2023-04-13T12:20:39.805Z,23.1583
2023-04-13T12:21:44.839Z,23.2450
2023-04-13T12:22:57.727Z,23.2847
2023-04-13T12:23:53.502Z,23.3341
2023-04-13T12:24:58.382Z,23.4855
2023-04-13T12:25:57.890Z,23.6899
2023-04-13T12:27:17.648Z,23.7979
2023-04-13T12:28:06.280Z,23.9619
2023-04-13T12:29:10.228Z,24.0654
2023-04-13T12:30:14.111Z,24.1796
2023-04-13T12:31:17.996Z,24.3359
2023-04-13T12:32:21.950Z,24.4791
2023-04-13T12:33:25.828Z,24.6196
2023-04-13T12:34:29.728Z,24.7287
2023-04-13T12:35:33.634Z,24.9339
2023-04-13T12:36:37.883Z,24.9924
2023-04-13T12:37:41.794Z,25.0765
2023-04-13T12:38:45.674Z,25.1641
2023-04-13T12:39:49.587Z,25.2821
2023-04-13T12:40:53.494Z,25.3702
2023-04-13T12:41:57.376Z,25.4014
2023-04-13T12:43:01.273Z,25.4469
2023-04-13T12:44:01.449Z,25.4948
2023-04-13T12:45:05.342Z,25.5566
2023-04-13T12:46:09.260Z,25.6573
2023-04-13T12:47:13.188Z,25.6475
2023-04-13T12:48:17.160Z,25.6134
2023-04-13T12:49:21.063Z,25.6293
2023-04-13T12:50:24.950Z,25.6952
2023-04-13T12:51:29.080Z,25.6541
2023-04-13T12:52:32.991Z,25.6488
2023-04-13T12:53:36.911Z,25.7423
2023-04-13T12:54:40.823Z,25.7349
2023-04-13T12:55:44.766Z,25.7271